Pregled zadnjih 96 podatkov za postajo Vipolže (44544)

Čas Temperatura 2 m (°C)  Smer vetra (°)  Relativna vlaga 2 m (% RH)  Padavine (mm)  Omočenost lista (U)  Hitrost vetra (km/h) 
3.6.2020 18:00:00 24,68 231,44 59,32 0 0 1,03
3.6.2020 17:30:00 25,49 242,74 57,1 0 0 2,09
3.6.2020 17:00:00 25,2 254,37 57,1 0 0 4,45
3.6.2020 16:30:00 24,96 250,77 55,22 0 0 6,02
3.6.2020 16:00:00 25,34 242,42 51,85 0 0 5,48
3.6.2020 15:30:00 25,77 239,18 50,08 0 0 5,04
3.6.2020 15:00:00 26,19 235,44 48,24 0 0 1,93
3.6.2020 14:30:00 25,87 294,73 49,5 0 0 1,54
3.6.2020 14:00:00 25,31 274,1 51,72 0 0 3,54
3.6.2020 13:30:00 25,22 249,99 52,5 0 0 3,96
3.6.2020 13:00:00 25,26 285,83 51,56 0 0 2,12
3.6.2020 12:30:00 24,91 274,27 50,55 0 0 1,02
3.6.2020 12:00:00 24,74 277,75 52,1 0 0 0,45
3.6.2020 11:30:00 24,05 256,01 52,82 0 0 1,46
3.6.2020 11:00:00 24,22 199,09 53,8 0 0 0,12
3.6.2020 10:30:00 23,54 231,39 59,29 0 0 0,11
3.6.2020 10:00:00 22,22 147,07 67,5 0 0 0,06
3.6.2020 9:30:00 21,96 183,5 68,02 0 0 0
3.6.2020 9:00:00 19,94 209,67 74,22 0 0 0
3.6.2020 8:30:00 18,84 218,1 78,96 0 0 0
3.6.2020 8:00:00 17,03 295,5 85,75 0 1 0
3.6.2020 7:30:00 15,94 32,83 89,31 0 10 0
3.6.2020 7:00:00 13,12 32,87 100 0 10 0
3.6.2020 6:30:00 11,47 32,41 100 0 10 0,05
3.6.2020 6:00:00 10,92 22,91 100 0 10 0
3.6.2020 5:30:00 10,8 44,69 100 0 10 0,03
3.6.2020 5:00:00 10,94 69,6 100 0 10 0
3.6.2020 4:30:00 10,62 32,54 100 0 10 0
3.6.2020 4:00:00 11,02 68,63 100 0 10 0
3.6.2020 3:30:00 11,25 59,25 100 0 10 0,22
3.6.2020 3:00:00 11,64 43,7 100 0 10 0,26
3.6.2020 2:30:00 11,83 43,1 100 0 10 0
3.6.2020 2:00:00 12,28 49,33 100 0 10 0
3.6.2020 1:30:00 12,49 79,72 100 0 10 0,05
3.6.2020 1:00:00 13,04 340 99,95 0 10 0,62
3.6.2020 0:30:00 13,33 47,06 99,26 0 9 0,08
3.6.2020 13,75 46,4 97,77 0 4
2.6.2020 23:30:00 14,5 46,4 95,62 0 4
2.6.2020 23:00:00 14,92 46,4 93,79 0 3 0,28
2.6.2020 22:30:00 14,69 42,71 93,02 0 3 0,55
2.6.2020 22:00:00 15,76 119,41 86,56 0 1
2.6.2020 21:30:00 16,76 118,54 82,61 0 0
2.6.2020 21:00:00 18,38 84,05 74,04 0 0 0,48
2.6.2020 20:30:00 19,74 88,84 68,42 0 0 0,59
2.6.2020 20:00:00 20,98 105,14 65,69 0 0 1,05
2.6.2020 19:30:00 21,61 148,79 62,84 0 0 2,11
2.6.2020 19:00:00 22,45 143,86 56,91 0 0 2,09
2.6.2020 18:30:00 24,41 252,43 51,94 0 0 2,25
2.6.2020 18:00:00 24,92 156,74 52,57 0 0 1,34
2.6.2020 17:30:00 24,5 221,96 56,07 0 0 2,57
2.6.2020 17:00:00 23,74 145,26 61,21 0 0 5,24
2.6.2020 16:30:00 22,85 133,27 63,29 0 10 0,79
2.6.2020 16:00:00 23,58 223,43 55,18 0 2 1,86
2.6.2020 15:30:00 24,11 253,91 53,86 0 1 4,33
2.6.2020 15:00:00 25,56 211,94 53,29 0 0 3,64
2.6.2020 14:30:00 26,11 239,87 54,69 0 0 3,5
2.6.2020 14:00:00 26,13 244,01 51,24 0 0 1,39
2.6.2020 13:30:00 25,96 220,95 54,09 0 0 1,6
2.6.2020 13:00:00 25,45 247,94 52 0 0 2,72
2.6.2020 12:30:00 25,34 245,51 52,94 0 0 0,61
2.6.2020 12:00:00 25,05 241,39 54,61 0 0 1,2
2.6.2020 11:30:00 24,61 201,26 53,65 0 0 1,15
2.6.2020 11:00:00 23,9 255,6 54,95 0 0 0,4
2.6.2020 10:30:00 23,45 208,81 55,76 0 0 0,22
2.6.2020 10:00:00 23,35 269,27 57,01 0 0 0,42
2.6.2020 9:30:00 22,92 193,65 57,59 0 0 0,27
2.6.2020 9:00:00 22,12 118,23 61,6 0 0
2.6.2020 8:30:00 20,82 38,72 67,09 0 0
2.6.2020 8:00:00 19,16 38,67 70,31 0 0
2.6.2020 7:30:00 16,51 38,72 80,51 0 0
2.6.2020 7:00:00 13,83 38,72 91,18 0 0
2.6.2020 6:30:00 11,76 38,72 99,63 0 3
2.6.2020 6:00:00 10,12 38,72 100 0 3
2.6.2020 5:30:00 9,91 42,91 100 0 3
2.6.2020 5:00:00 10,1 42,96 100 0 3
2.6.2020 4:30:00 10,18 34,61 99,87 0 3 0,19
2.6.2020 4:00:00 10,38 49,31 99,37 0 3
2.6.2020 3:30:00 10,78 36,82 98,74 0 3
2.6.2020 3:00:00 11,02 46,17 98,27 0 3 0,06
2.6.2020 2:30:00 11,36 53,38 97,19 0 2
2.6.2020 2:00:00 11,97 33,39 95,8 0 2
2.6.2020 1:30:00 12,24 22,39 95,96 0 2
2.6.2020 1:00:00 12,71 32,66 95,13 0 1
2.6.2020 0:30:00 13,26 63,3 94 0 1
2.6.2020 14,15 43,98 91,21 0 0 0,37
1.6.2020 23:30:00 14,71 31,44 89,12 0 0 0,93
1.6.2020 23:00:00 15,84 45,1 84,66 0 0 0,27
1.6.2020 22:30:00 17,32 64,28 79,34 0 0
1.6.2020 22:00:00 19,59 198,76 66,66 0 0
1.6.2020 21:30:00 20,54 148,14 57,2 0 0
1.6.2020 21:00:00 21,2 163,69 55,78 0 0 0,54
1.6.2020 20:30:00 22,26 143,15 53,88 0 0 0,52
1.6.2020 20:00:00 23,2 245,07 49,77 0 0
1.6.2020 19:30:00 24,05 242,12 46,78 0 0 0,84
1.6.2020 19:00:00 24,2 285,76 47,94 0 0 0,7
1.6.2020 18:30:00 24,46 250,64 46,89 0 0 2,01